Terminal Aerodrome Forecast
Issued by NWS Shreveport, LA

Home | Current Version | Previous Version | Text Only | Print | Product List | Glossary On
Versions: 1 2 3 4 5 6 7 8 9 10 11 12 13 14 15 16 17 18
000
FTUS44 KSHV 010028 AAB
TAFSHV
TAF AMD
KSHV 010028Z 0100/0124 24012G17KT P6SM VCTS SCT045CB BKN280
      TEMPO 0100/0103 VRB20G30KT 2SM TSRA BR BKN030CB
     FM010300 23006KT P6SM BKN050 BKN150
     FM011400 24008KT P6SM BKN250
     FM011500 25013G21KT P6SM SCT250
     FM011800 22009KT P6SM VCTS BKN050CB=

USA.gov is the U.S. government's official web portal to all federal, state and local government web resources and services.